Terminal Aerodrome Forecast
Issued by NWS Tallahassee, FL

Home | Current Version | Previous Version | Text Only | Print | Product List | Glossary On
Versions: 1 2 3 4 5 6 7 8 9 10 11 12 13 14 15
000
FTUS42 KTAE 251100
TAFTLH
TAF
KTLH 251120Z 2512/2612 00000KT P6SM SKC
     FM251800 21010G15KT P6SM SCT050 SCT100
     FM260300 25010KT P6SM BKN050
     FM260900 29008KT P6SM SKC=

USA.gov is the U.S. government's official web portal to all federal, state and local government web resources and services.